Time;durP1;ratioP1;P1;durP2;ratioP2;P2;SDS_P1;SDS_P2;PMS_P1;PMS_P2;Temp;Humidity;BMP_temperature;BMP_pressure;BME280_temperature;BME280_humidity;BME280_pressure;Samples;Min_cycle;Max_cycle;Signal;HPM_P1;HPM_P2
2023/05/24 00:01:08;;;;;;;20.55;11.90;;;14.30;99.90;;;;;;5027277;28;20111;-79
2023/05/24 00:03:38;;;;;;;28.20;12.43;;;14.20;99.90;;;;;;5032845;28;20509;-79
2023/05/24 00:06:06;;;;;;;21.45;11.40;;;14.20;99.90;;;;;;5016465;28;20087;-79
2023/05/24 00:08:35;;;;;;;21.98;12.15;;;14.20;99.90;;;;;;5034245;28;20620;-78
2023/05/24 00:11:02;;;;;;;15.07;10.95;;;14.20;99.90;;;;;;5034068;28;20513;-78
2023/05/24 00:13:30;;;;;;;26.83;11.77;;;14.10;99.90;;;;;;5033618;28;20099;-78
2023/05/24 00:15:57;;;;;;;23.33;12.27;;;14.10;99.90;;;;;;5039600;28;20053;-78
2023/05/24 00:18:25;;;;;;;23.90;11.43;;;14.10;99.90;;;;;;5034307;28;20055;-79
2023/05/24 00:20:55;;;;;;;20.33;12.05;;;14.10;99.90;;;;;;5033941;28;20104;-79
2023/05/24 00:23:23;;;;;;;16.50;11.60;;;14.10;99.90;;;;;;5031631;28;20144;-78
2023/05/24 00:25:52;;;;;;;20.67;12.13;;;14.10;99.90;;;;;;5019603;28;20099;-78
2023/05/24 00:28:20;;;;;;;16.90;11.43;;;14.10;99.90;;;;;;5033716;28;20099;-78
2023/05/24 00:30:47;;;;;;;19.77;12.38;;;14.10;99.90;;;;;;5031359;28;20046;-78
2023/05/24 00:33:15;;;;;;;18.17;11.13;;;14.10;99.90;;;;;;5047477;28;20045;-78
2023/05/24 00:35:42;;;;;;;18.90;11.98;;;14.10;99.90;;;;;;5021481;28;20064;-79
2023/05/24 00:38:10;;;;;;;19.58;11.82;;;14.10;99.90;;;;;;5032816;28;20064;-79
2023/05/24 00:40:37;;;;;;;22.23;11.95;;;14.10;99.90;;;;;;5033413;28;20050;-78
2023/05/24 00:43:07;;;;;;;17.55;12.27;;;14.10;99.90;;;;;;5036333;28;20136;-78
2023/05/24 00:45:35;;;;;;;17.92;11.70;;;14.00;99.90;;;;;;5012546;28;20099;-79
2023/05/24 00:48:04;;;;;;;19.52;12.27;;;14.00;99.90;;;;;;5026460;28;20446;-79
2023/05/24 00:50:31;;;;;;;20.90;11.68;;;14.00;99.90;;;;;;5021159;28;20561;-79
2023/05/24 00:53:04;;;;;;;14.77;11.10;;;13.90;99.90;;;;;;5014303;28;20045;-79
2023/05/24 00:55:33;;;;;;;18.88;11.48;;;13.90;99.90;;;;;;5011690;28;20048;-79
2023/05/24 00:58:01;;;;;;;16.60;11.25;;;13.90;99.90;;;;;;5010124;28;20096;-79
2023/05/24 01:00:30;;;;;;;17.60;10.85;;;13.90;99.90;;;;;;5031030;28;20060;-79
2023/05/24 01:02:59;;;;;;;14.15;10.50;;;13.90;99.90;;;;;;5021267;28;20140;-78
2023/05/24 01:05:27;;;;;;;25.58;11.95;;;13.90;99.90;;;;;;5033028;28;20520;-78
2023/05/24 01:08:04;;;;;;;17.92;11.88;;;13.80;99.90;;;;;;5017592;28;20072;-78
2023/05/24 01:10:41;;;;;;;22.17;11.95;;;13.80;99.90;;;;;;5018361;28;20076;-79
2023/05/24 01:13:31;;;;;;;17.77;11.65;;;13.70;99.90;;;;;;5053575;28;20467;-78
2023/05/24 01:16:07;;;;;;;23.25;12.05;;;13.70;99.90;;;;;;5037489;28;20053;-79
2023/05/24 01:18:40;;;;;;;16.27;10.80;;;13.60;99.90;;;;;;5029492;28;20060;-78
2023/05/24 01:21:37;;;;;;;19.75;11.13;;;13.60;99.90;;;;;;5009497;28;20136;-79
2023/05/24 01:24:24;;;;;;;19.40;12.07;;;13.60;99.90;;;;;;5048866;28;20045;-79
2023/05/24 01:27:07;;;;;;;18.98;12.55;;;13.60;99.90;;;;;;5015703;28;20050;-78
2023/05/24 01:29:37;;;;;;;19.75;11.48;;;13.50;99.90;;;;;;5024023;28;20049;-78
2023/05/24 01:32:06;;;;;;;17.15;10.93;;;13.50;99.90;;;;;;5003372;28;20460;-78
2023/05/24 01:34:33;;;;;;;15.00;10.52;;;13.50;99.90;;;;;;5032600;28;20081;-79
2023/05/24 01:37:02;;;;;;;16.88;10.75;;;13.50;99.90;;;;;;5031843;28;20497;-79
2023/05/24 01:39:30;;;;;;;14.80;10.95;;;13.50;99.90;;;;;;5030372;28;20575;-78
2023/05/24 01:42:09;;;;;;;16.95;11.25;;;13.50;99.90;;;;;;5031832;28;20048;-78
2023/05/24 01:44:42;;;;;;;16.27;10.95;;;13.50;99.90;;;;;;5032296;28;20048;-78
2023/05/24 01:47:16;;;;;;;;;;;13.50;99.90;;;;;;5038811;28;20044;-81
2023/05/24 01:49:50;;;;;;;18.92;11.43;;;13.50;99.90;;;;;;5034300;28;20036;-81
2023/05/24 01:52:22;;;;;;;16.13;10.90;;;13.40;99.90;;;;;;5015241;28;20056;-81
2023/05/24 01:54:53;;;;;;;18.02;11.07;;;13.40;99.90;;;;;;5014178;28;20049;-81
2023/05/24 01:57:23;;;;;;;16.05;10.95;;;13.40;99.90;;;;;;5043016;28;20354;-80
2023/05/24 01:59:52;;;;;;;18.85;12.38;;;13.40;99.90;;;;;;4999244;28;20438;-82
2023/05/24 02:02:20;;;;;;;18.25;11.20;;;13.40;99.90;;;;;;5029499;28;20073;-80
2023/05/24 02:04:47;;;;;;;19.40;11.48;;;13.30;99.90;;;;;;5031842;28;20072;-81
2023/05/24 02:07:18;;;;;;;25.58;11.48;;;13.30;99.90;;;;;;4996931;28;20049;-80
2023/05/24 02:09:45;;;;;;;16.90;11.40;;;13.30;99.90;;;;;;5031487;28;20057;-81
2023/05/24 02:12:14;;;;;;;15.32;11.00;;;13.40;99.90;;;;;;5033146;28;20084;-80
2023/05/24 02:14:43;;;;;;;22.05;11.93;;;13.30;99.90;;;;;;5025489;28;20042;-80
2023/05/24 02:17:11;;;;;;;16.05;11.55;;;13.30;99.90;;;;;;4998026;28;20148;-80
2023/05/24 02:19:39;;;;;;;25.45;11.80;;;13.30;99.90;;;;;;5014965;28;20045;-81
2023/05/24 02:22:07;;;;;;;18.35;11.90;;;13.30;99.90;;;;;;5031198;28;20087;-79
2023/05/24 02:24:35;;;;;;;20.50;12.70;;;13.30;99.90;;;;;;4999836;28;20058;-79
2023/05/24 02:27:03;;;;;;;21.90;13.05;;;13.30;99.90;;;;;;4995470;28;20521;-79
2023/05/24 02:29:30;;;;;;;24.40;13.88;;;13.30;99.90;;;;;;5014575;28;20513;-81
2023/05/24 02:31:59;;;;;;;26.08;12.45;;;13.30;99.90;;;;;;5012565;28;20049;-79
2023/05/24 02:34:27;;;;;;;25.27;12.93;;;13.30;99.90;;;;;;4979240;28;20057;-80
2023/05/24 02:36:54;;;;;;;22.80;11.85;;;13.40;99.90;;;;;;4994884;28;20045;-80
2023/05/24 02:39:22;;;;;;;20.17;13.70;;;13.40;99.90;;;;;;5011224;28;20585;-80
2023/05/24 02:41:49;;;;;;;18.42;13.18;;;13.40;99.90;;;;;;5024238;28;20045;-80
2023/05/24 02:44:17;;;;;;;21.30;13.60;;;13.40;99.90;;;;;;4997050;28;20531;-81
2023/05/24 02:46:44;;;;;;;18.58;13.05;;;13.40;99.90;;;;;;5025546;28;20049;-81
2023/05/24 02:49:13;;;;;;;22.05;12.73;;;13.50;99.90;;;;;;5027390;28;20136;-82
2023/05/24 02:51:41;;;;;;;20.98;13.40;;;13.50;99.90;;;;;;5020009;28;20498;-82
2023/05/24 02:54:08;;;;;;;20.45;13.60;;;13.50;99.90;;;;;;5031928;28;20045;-81
2023/05/24 02:56:36;;;;;;;20.42;14.95;;;13.60;99.90;;;;;;5034321;28;20049;-83
2023/05/24 02:59:03;;;;;;;23.42;15.02;;;13.60;99.90;;;;;;5014843;28;20045;-82
2023/05/24 03:01:32;;;;;;;22.77;13.88;;;13.60;99.90;;;;;;5014410;28;20053;-82
2023/05/24 03:04:00;;;;;;;20.95;15.07;;;13.60;99.90;;;;;;5014457;28;20115;-82
2023/05/24 03:06:29;;;;;;;20.60;14.27;;;13.70;99.90;;;;;;5031388;28;20521;-82
2023/05/24 03:08:58;;;;;;;22.52;14.50;;;13.70;99.90;;;;;;5016027;28;20077;-82
2023/05/24 03:11:27;;;;;;;17.52;15.25;;;13.70;99.90;;;;;;5030976;28;20050;-82
2023/05/24 03:13:55;;;;;;;24.08;15.55;;;13.80;99.90;;;;;;5012734;28;20053;-82
2023/05/24 03:16:22;;;;;;;26.92;17.63;;;13.80;99.90;;;;;;5004106;28;20065;-82
2023/05/24 03:18:49;;;;;;;24.20;16.73;;;13.80;99.90;;;;;;5044650;28;20090;-82
2023/05/24 03:21:19;;;;;;;26.42;18.75;;;13.90;99.90;;;;;;5044452;28;20060;-82
2023/05/24 03:23:48;;;;;;;22.58;18.02;;;13.90;99.90;;;;;;5045971;28;20072;-81
2023/05/24 03:26:17;;;;;;;25.35;18.02;;;14.00;99.90;;;;;;5027777;28;20056;-81
2023/05/24 03:28:45;;;;;;;28.67;17.83;;;14.00;99.90;;;;;;5021555;28;20575;-81
2023/05/24 03:31:13;;;;;;;28.33;18.38;;;14.10;99.90;;;;;;5044856;28;20053;-81
2023/05/24 03:33:40;;;;;;;25.60;18.85;;;14.10;99.90;;;;;;5041404;28;20041;-81
2023/05/24 03:36:10;;;;;;;27.17;18.02;;;14.20;99.90;;;;;;5019756;28;20041;-81
2023/05/24 03:38:38;;;;;;;27.90;17.50;;;14.30;99.90;;;;;;5033210;28;20041;-81
2023/05/24 03:41:08;;;;;;;25.13;18.10;;;14.30;99.90;;;;;;5022160;28;20044;-82
2023/05/24 03:43:35;;;;;;;21.58;16.55;;;14.40;99.90;;;;;;5029851;28;20081;-82
2023/05/24 03:46:06;;;;;;;22.02;16.05;;;14.40;99.90;;;;;;5021340;28;20041;-81
2023/05/24 03:48:34;;;;;;;22.25;15.02;;;14.50;99.90;;;;;;5022664;28;20136;-80
2023/05/24 03:51:02;;;;;;;19.83;14.93;;;14.60;99.90;;;;;;5013904;28;20041;-81
2023/05/24 03:53:31;;;;;;;18.00;14.50;;;14.60;99.90;;;;;;4996658;28;20165;-83
2023/05/24 03:55:58;;;;;;;19.40;14.65;;;14.70;99.90;;;;;;5003938;28;20045;-84
2023/05/24 03:58:28;;;;;;;19.73;14.05;;;14.80;99.90;;;;;;5030617;28;20482;-83
2023/05/24 04:01:30;;;;;;;;;;;;;;;;;;;;;
2023/05/24 04:04:11;;;;;;;20.13;13.68;;;14.90;99.90;;;;;;5028976;28;20049;-84
2023/05/24 04:06:40;;;;;;;19.05;14.05;;;15.00;99.90;;;;;;5010741;28;20042;-84
2023/05/24 04:09:08;;;;;;;15.20;13.30;;;15.10;99.90;;;;;;4978132;28;20454;-82
2023/05/24 04:11:36;;;;;;;19.95;14.02;;;15.20;99.90;;;;;;5009877;28;20577;-82
2023/05/24 04:14:05;;;;;;;19.75;13.45;;;15.30;99.90;;;;;;5026562;28;20051;-81
2023/05/24 04:16:33;;;;;;;18.48;13.77;;;15.40;99.90;;;;;;5030974;28;20072;-80
2023/05/24 04:19:02;;;;;;;16.90;12.23;;;15.50;99.90;;;;;;4997075;28;20038;-80
2023/05/24 04:21:31;;;;;;;15.95;12.93;;;15.60;99.90;;;;;;4999255;28;20587;-81
2023/05/24 04:24:00;;;;;;;16.95;12.45;;;15.80;99.90;;;;;;5026654;28;20061;-80
2023/05/24 04:26:28;;;;;;;18.25;12.43;;;15.80;99.90;;;;;;5007519;28;20417;-80
2023/05/24 04:28:56;;;;;;;18.55;12.50;;;15.90;99.90;;;;;;5005686;28;20049;-81
2023/05/24 04:31:29;;;;;;;20.40;12.48;;;16.00;99.90;;;;;;5000495;28;20553;-82
2023/05/24 04:33:58;;;;;;;14.98;12.18;;;16.10;99.90;;;;;;5033659;28;20049;-80
2023/05/24 04:36:27;;;;;;;16.67;11.63;;;16.30;99.90;;;;;;4998635;28;20049;-79
2023/05/24 04:39:01;;;;;;;14.70;11.35;;;16.40;99.90;;;;;;5006482;28;20058;-78
2023/05/24 04:41:31;;;;;;;14.50;11.38;;;16.50;99.90;;;;;;4996281;28;20049;-80
2023/05/24 04:43:59;;;;;;;16.88;10.88;;;16.60;99.90;;;;;;4996362;28;20046;-79
2023/05/24 04:46:28;;;;;;;12.23;11.10;;;16.70;99.90;;;;;;5019825;28;20047;-79
2023/05/24 04:48:55;;;;;;;14.20;10.80;;;16.80;99.90;;;;;;5016937;28;20041;-79
2023/05/24 04:51:24;;;;;;;16.00;10.55;;;16.90;99.90;;;;;;5034184;28;20100;-84
2023/05/24 04:53:52;;;;;;;14.00;11.52;;;17.00;99.90;;;;;;4997441;28;20056;-82
2023/05/24 04:56:20;;;;;;;16.48;10.10;;;17.10;99.90;;;;;;5027010;28;20046;-83
2023/05/24 04:58:48;;;;;;;13.13;11.25;;;17.20;99.90;;;;;;5020097;28;20050;-83
2023/05/24 05:01:17;;;;;;;11.32;9.82;;;17.30;99.90;;;;;;5025590;28;20057;-79
2023/05/24 05:03:46;;;;;;;13.13;9.98;;;17.40;99.90;;;;;;4995217;28;20042;-79
2023/05/24 05:06:14;;;;;;;14.85;10.25;;;17.50;99.90;;;;;;5023894;28;20049;-80
2023/05/24 05:08:42;;;;;;;11.18;10.15;;;17.70;99.90;;;;;;5027009;28;20502;-78
2023/05/24 05:11:10;;;;;;;17.98;11.30;;;17.80;99.90;;;;;;5003528;28;20056;-78
2023/05/24 05:13:37;;;;;;;11.02;9.93;;;17.90;99.90;;;;;;5018767;28;20137;-82
2023/05/24 05:16:05;;;;;;;12.68;10.57;;;18.10;99.90;;;;;;5014730;28;20100;-82
2023/05/24 05:18:33;;;;;;;14.52;11.13;;;18.40;99.90;;;;;;4982536;28;20571;-84
2023/05/24 05:21:02;;;;;;;18.27;10.60;;;18.60;99.90;;;;;;5031286;28;20119;-80
2023/05/24 05:23:31;;;;;;;12.75;11.10;;;18.80;99.90;;;;;;5010812;28;20045;-82
2023/05/24 05:25:58;;;;;;;11.98;9.38;;;19.00;99.90;;;;;;5029281;28;20107;-85
2023/05/24 05:28:29;;;;;;;12.63;10.50;;;19.20;99.90;;;;;;5031740;28;20535;-82
2023/05/24 05:30:57;;;;;;;14.60;9.75;;;19.60;99.90;;;;;;5033563;28;20065;-86
2023/05/24 05:33:24;;;;;;;11.77;9.63;;;20.10;99.90;;;;;;5022911;28;20046;-85
2023/05/24 05:35:52;;;;;;;13.95;8.82;;;20.50;99.90;;;;;;5016233;28;20290;-85
2023/05/24 05:38:21;;;;;;;13.18;9.85;;;21.10;99.90;;;;;;5032773;28;20172;-83
2023/05/24 05:40:48;;;;;;;9.80;8.80;;;21.60;99.90;;;;;;5010146;28;20564;-84
2023/05/24 05:43:16;;;;;;;9.55;7.95;;;22.30;99.90;;;;;;4996103;28;20054;-84
2023/05/24 05:45:43;;;;;;;13.35;7.75;;;22.80;99.90;;;;;;5002209;28;20053;-86
2023/05/24 05:48:11;;;;;;;10.05;8.70;;;23.30;99.90;;;;;;5016298;28;20076;-85
2023/05/24 05:50:39;;;;;;;11.90;8.18;;;23.70;99.90;;;;;;5026056;28;20054;-84
2023/05/24 05:53:06;;;;;;;12.57;8.50;;;24.20;99.90;;;;;;5013553;28;20057;-83
2023/05/24 05:55:35;;;;;;;13.85;11.20;;;24.50;99.90;;;;;;5024424;28;20076;-83
2023/05/24 05:58:02;;;;;;;10.02;9.10;;;24.90;99.90;;;;;;5029524;28;20060;-80
2023/05/24 06:00:30;;;;;;;11.80;7.35;;;25.30;99.90;;;;;;4983549;28;20533;-80
2023/05/24 06:02:57;;;;;;;7.53;6.70;;;25.60;99.90;;;;;;4993321;28;20053;-81
2023/05/24 06:05:25;;;;;;;10.63;8.52;;;25.90;99.90;;;;;;5012883;28;20056;-80
2023/05/24 06:07:53;;;;;;;7.60;6.70;;;26.20;99.90;;;;;;4995023;28;20132;-80
2023/05/24 06:10:21;;;;;;;8.57;6.60;;;26.50;99.30;;;;;;5012170;28;20046;-79
2023/05/24 06:12:50;;;;;;;9.43;6.47;;;26.80;97.50;;;;;;5013532;28;20429;-80
2023/05/24 06:15:21;;;;;;;8.32;7.22;;;27.10;95.90;;;;;;5010568;28;20046;-79
2023/05/24 06:17:50;;;;;;;9.93;9.02;;;27.30;93.80;;;;;;5026469;28;20049;-79
2023/05/24 06:20:18;;;;;;;5.80;5.30;;;27.50;92.50;;;;;;5014422;28;20091;-79
2023/05/24 06:22:48;;;;;;;6.30;5.82;;;27.70;90.90;;;;;;5014589;28;20054;-79
2023/05/24 06:25:17;;;;;;;7.75;4.80;;;28.00;90.70;;;;;;5031132;28;20057;-76
2023/05/24 06:27:45;;;;;;;7.22;5.07;;;28.10;87.70;;;;;;5025367;28;20057;-80
2023/05/24 06:30:15;;;;;;;9.57;4.88;;;28.30;86.60;;;;;;4992793;28;20073;-81
2023/05/24 06:32:42;;;;;;;6.85;4.60;;;28.40;82.90;;;;;;5030016;28;20444;-81
2023/05/24 06:35:10;;;;;;;10.70;5.20;;;28.60;82.20;;;;;;5028520;28;20140;-81
2023/05/24 06:37:38;;;;;;;7.13;4.85;;;28.80;79.30;;;;;;5031127;28;20049;-80
2023/05/24 06:40:08;;;;;;;11.27;6.40;;;28.90;78.30;;;;;;4997618;28;20053;-80
2023/05/24 06:42:36;;;;;;;10.55;5.60;;;29.20;77.70;;;;;;5031238;28;20061;-78
2023/05/24 06:45:04;;;;;;;4.78;4.30;;;29.50;74.20;;;;;;5011989;28;20041;-79
2023/05/24 06:47:35;;;;;;;8.48;4.93;;;29.60;69.30;;;;;;5010170;28;20175;-80
2023/05/24 06:50:03;;;;;;;6.03;5.60;;;29.70;69.60;;;;;;5011621;28;20045;-78
2023/05/24 06:52:32;;;;;;;8.82;4.80;;;29.80;72.20;;;;;;5031518;28;20052;-79
2023/05/24 06:54:59;;;;;;;5.72;5.18;;;29.90;69.70;;;;;;5021622;28;20053;-81
2023/05/24 06:57:27;;;;;;;7.43;6.72;;;30.10;68.60;;;;;;5026308;28;20053;-79
2023/05/24 07:00:00;;;;;;;5.57;5.00;;;30.30;68.90;;;;;;5006170;28;20524;-80
2023/05/24 07:02:28;;;;;;;6.22;4.93;;;30.60;64.80;;;;;;5011485;28;20096;-76
2023/05/24 07:04:57;;;;;;;12.00;6.88;;;30.70;63.10;;;;;;5026943;28;20052;-74
2023/05/24 07:07:25;;;;;;;6.72;5.22;;;30.90;65.60;;;;;;5022866;28;20046;-74
2023/05/24 07:09:53;;;;;;;8.73;5.50;;;30.90;62.80;;;;;;5005358;28;20505;-78
2023/05/24 07:12:22;;;;;;;6.78;5.65;;;30.90;62.90;;;;;;5024181;28;20053;-78
2023/05/24 07:14:50;;;;;;;10.57;5.88;;;31.10;63.40;;;;;;5006140;28;20064;-79
2023/05/24 07:17:18;;;;;;;7.03;4.82;;;31.20;63.60;;;;;;5019803;28;20053;-80
2023/05/24 07:19:45;;;;;;;6.00;5.20;;;31.40;61.30;;;;;;5018328;28;20644;-79
2023/05/24 07:22:14;;;;;;;11.05;5.00;;;31.60;62.30;;;;;;5019143;28;20042;-80
2023/05/24 07:24:42;;;;;;;5.38;4.90;;;31.70;60.40;;;;;;4990178;28;20054;-76
2023/05/24 07:27:10;;;;;;;5.97;5.00;;;32.00;59.70;;;;;;5026791;28;20132;-76
2023/05/24 07:29:38;;;;;;;12.38;5.82;;;32.50;58.70;;;;;;5010726;28;20075;-76
2023/05/24 07:32:06;;;;;;;5.40;4.93;;;32.70;58.50;;;;;;5010775;28;20515;-78
2023/05/24 07:34:34;;;;;;;9.05;4.20;;;32.70;57.20;;;;;;5022316;28;20095;-75
2023/05/24 07:37:02;;;;;;;6.10;4.25;;;32.70;54.80;;;;;;5025490;28;20084;-79
2023/05/24 07:39:34;;;;;;;5.57;4.13;;;32.90;54.80;;;;;;5023591;28;20045;-79
2023/05/24 07:42:03;;;;;;;4.75;4.25;;;33.00;51.80;;;;;;5022245;28;20592;-78
2023/05/24 07:44:31;;;;;;;6.38;3.95;;;32.70;52.50;;;;;;5010121;28;20105;-76
2023/05/24 07:46:59;;;;;;;5.50;4.10;;;32.70;52.60;;;;;;5024602;28;20048;-76
2023/05/24 07:49:28;;;;;;;6.05;4.07;;;32.70;51.80;;;;;;5023467;28;20050;-77
2023/05/24 07:51:58;;;;;;;6.38;4.25;;;32.40;53.40;;;;;;5008610;28;20049;-77
2023/05/24 07:54:26;;;;;;;6.53;3.92;;;32.60;54.80;;;;;;5003236;28;20063;-78
2023/05/24 07:56:56;;;;;;;4.95;4.47;;;33.00;53.60;;;;;;5022143;28;20050;-78
2023/05/24 07:59:26;;;;;;;7.15;4.80;;;33.50;55.10;;;;;;5005333;28;20046;-78
2023/05/24 08:01:53;;;;;;;6.82;4.10;;;33.80;53.40;;;;;;5026216;28;20091;-78
2023/05/24 08:04:22;;;;;;;9.10;4.00;;;34.30;51.50;;;;;;5032960;28;20128;-78
2023/05/24 08:06:49;;;;;;;8.07;4.70;;;34.20;51.10;;;;;;5021528;28;20049;-77
2023/05/24 08:09:17;;;;;;;8.57;4.03;;;34.00;50.90;;;;;;5032865;28;20725;-78
2023/05/24 08:11:44;;;;;;;10.60;4.18;;;32.90;51.50;;;;;;5032953;28;20049;-74
2023/05/24 08:14:13;;;;;;;11.27;4.57;;;32.50;54.50;;;;;;5024633;28;20056;-74
2023/05/24 08:16:41;;;;;;;11.48;4.65;;;31.90;54.00;;;;;;5013284;28;20658;-74
2023/05/24 08:19:08;;;;;;;11.20;4.50;;;31.00;55.30;;;;;;5031861;28;20401;-75
2023/05/24 08:21:36;;;;;;;10.88;5.03;;;31.00;56.10;;;;;;5019834;28;20059;-74
2023/05/24 08:24:03;;;;;;;5.25;4.88;;;30.70;57.20;;;;;;5028317;28;20072;-76
2023/05/24 08:26:31;;;;;;;7.78;3.70;;;30.80;56.90;;;;;;5011785;28;20046;-76
2023/05/24 08:28:59;;;;;;;5.45;3.72;;;31.60;55.10;;;;;;5024293;28;20042;-75
2023/05/24 08:31:28;;;;;;;7.65;3.90;;;32.60;53.20;;;;;;5030889;28;20175;-75
2023/05/24 08:33:56;;;;;;;4.03;3.03;;;33.50;51.30;;;;;;5025645;28;20049;-75
2023/05/24 08:36:23;;;;;;;9.45;3.40;;;34.20;50.30;;;;;;5014233;28;20045;-73
2023/05/24 08:38:51;;;;;;;4.50;3.38;;;34.70;49.90;;;;;;5029491;28;20054;-75
2023/05/24 08:41:19;;;;;;;6.25;3.75;;;35.50;49.30;;;;;;5025171;28;20069;-77
2023/05/24 08:43:47;;;;;;;7.30;3.42;;;35.90;48.60;;;;;;5030261;28;20045;-77
2023/05/24 08:46:17;;;;;;;10.00;3.97;;;36.30;48.70;;;;;;5032083;28;20057;-77
2023/05/24 08:48:48;;;;;;;9.05;3.42;;;36.70;48.60;;;;;;5028651;28;20517;-76
2023/05/24 08:51:16;;;;;;;3.27;2.97;;;36.80;46.20;;;;;;5032452;28;20417;-78
2023/05/24 08:53:47;;;;;;;5.78;3.40;;;36.90;44.60;;;;;;5035611;28;20049;-76
2023/05/24 08:56:17;;;;;;;;;;;37.00;42.90;;;;;;5033072;28;20104;-83
2023/05/24 08:58:45;;;;;;;4.90;2.97;;;36.70;43.10;;;;;;5011498;28;19925;-81
2023/05/24 09:01:14;;;;;;;4.40;3.28;;;36.60;43.30;;;;;;5025309;28;20055;-84
2023/05/24 09:03:44;;;;;;;6.57;3.40;;;36.30;43.40;;;;;;5026819;28;20138;-81
2023/05/24 09:06:16;;;;;;;3.33;3.13;;;35.70;44.30;;;;;;5013630;28;20421;-80
2023/05/24 09:08:44;;;;;;;;;;;35.90;44.70;;;;;;5026647;28;20296;-81
2023/05/24 09:11:12;;;;;;;6.20;3.65;;;36.50;45.30;;;;;;5014116;28;20024;-83
2023/05/24 09:13:40;;;;;;;9.40;4.70;;;37.00;45.20;;;;;;4994493;28;20123;-83
2023/05/24 09:16:08;;;;;;;7.00;3.55;;;37.30;46.20;;;;;;5027555;28;20084;-86
2023/05/24 09:18:36;;;;;;;4.75;2.92;;;37.30;43.40;;;;;;5018964;28;20050;-83
2023/05/24 09:21:04;;;;;;;11.30;4.25;;;37.40;43.20;;;;;;5025036;28;20137;-82
2023/05/24 09:23:37;;;;;;;6.78;2.75;;;37.50;44.10;;;;;;5032028;28;20041;-83
2023/05/24 09:26:08;;;;;;;5.90;3.05;;;37.60;42.90;;;;;;5032489;28;20037;-81
2023/05/24 09:28:37;;;;;;;3.15;2.95;;;37.80;43.00;;;;;;5026413;28;20505;-82
2023/05/24 09:31:05;;;;;;;4.85;3.00;;;38.00;42.50;;;;;;5030946;28;20517;-81
2023/05/24 09:33:42;;;;;;;3.40;3.00;;;38.10;41.80;;;;;;5025115;28;20045;-81
2023/05/24 09:36:11;;;;;;;3.78;3.53;;;38.10;42.50;;;;;;5019425;28;20046;-82
2023/05/24 09:38:40;;;;;;;3.47;3.17;;;38.30;42.70;;;;;;5023832;28;20091;-82
2023/05/24 09:41:09;;;;;;;5.18;3.72;;;38.40;42.80;;;;;;5013718;28;20231;-81
2023/05/24 09:43:49;;;;;;;4.20;3.25;;;38.40;42.50;;;;;;5031219;28;20057;-84
2023/05/24 09:46:18;;;;;;;3.60;3.28;;;38.00;42.20;;;;;;5013975;28;20532;-77
2023/05/24 09:48:57;;;;;;;6.70;4.55;;;36.40;43.30;;;;;;5023724;28;20049;-78
2023/05/24 09:51:25;;;;;;;4.38;3.88;;;35.10;45.50;;;;;;5013174;28;20073;-77
2023/05/24 09:53:57;;;;;;;3.28;2.97;;;35.50;46.50;;;;;;5018348;28;20045;-77
2023/05/24 09:56:25;;;;;;;11.60;3.35;;;36.10;44.20;;;;;;5021633;28;20063;-78
2023/05/24 09:58:53;;;;;;;3.80;3.47;;;36.80;42.50;;;;;;5026078;28;20387;-78
2023/05/24 10:01:25;;;;;;;5.60;3.38;;;37.30;41.60;;;;;;5026392;28;20045;-76
2023/05/24 10:03:53;;;;;;;6.55;2.80;;;38.00;42.10;;;;;;5026549;28;20061;-78
2023/05/24 10:06:21;;;;;;;4.68;3.35;;;38.50;40.90;;;;;;5031122;28;20055;-79
2023/05/24 10:08:49;;;;;;;8.43;2.78;;;38.70;40.80;;;;;;4995753;28;20072;-76
2023/05/24 10:11:19;;;;;;;3.42;3.20;;;38.90;40.00;;;;;;5013469;28;20069;-79
2023/05/24 10:13:48;;;;;;;3.83;2.88;;;39.00;40.70;;;;;;5026265;28;20069;-84
2023/05/24 10:16:17;;;;;;;6.30;3.70;;;39.30;40.50;;;;;;4997310;28;20526;-82
2023/05/24 10:18:47;;;;;;;3.33;2.80;;;39.60;40.20;;;;;;5012387;28;20049;-86
2023/05/24 10:21:15;;;;;;;5.10;2.92;;;39.80;38.40;;;;;;5030261;28;20472;-85
2023/05/24 10:23:45;;;;;;;3.47;3.22;;;39.40;38.70;;;;;;5011320;28;20045;-87
2023/05/24 10:26:14;;;;;;;3.27;2.50;;;39.30;39.30;;;;;;5012932;28;20490;-86
2023/05/24 10:28:57;;;;;;;4.00;3.30;;;39.40;39.00;;;;;;5009067;28;20101;-83
2023/05/24 10:31:33;;;;;;;3.80;2.83;;;39.50;38.30;;;;;;5023028;28;20421;-84
2023/05/24 10:34:03;;;;;;;5.88;2.95;;;39.50;37.00;;;;;;5023624;28;20049;-84
2023/05/24 10:36:39;;;;;;;5.47;2.90;;;39.30;37.90;;;;;;4984050;28;20049;-82
2023/05/24 10:39:20;;;;;;;6.03;3.05;;;38.90;37.90;;;;;;5024282;28;20041;-86
2023/05/24 10:41:48;;;;;;;3.45;3.08;;;39.10;37.00;;;;;;5027627;28;20060;-84
2023/05/24 10:44:20;;;;;;;7.55;3.17;;;39.40;38.10;;;;;;5022870;28;20383;-81
2023/05/24 10:47:03;;;;;;;8.57;3.10;;;39.50;38.20;;;;;;5017717;28;20050;-81
2023/05/24 10:49:31;;;;;;;2.53;2.30;;;39.90;38.10;;;;;;5017064;28;20061;-82
2023/05/24 10:52:02;;;;;;;6.47;3.10;;;40.20;36.90;;;;;;5017615;28;20060;-86
2023/05/24 10:54:30;;;;;;;4.28;2.92;;;40.40;37.70;;;;;;5013263;28;20060;-85
2023/05/24 10:57:07;;;;;;;4.55;3.58;;;40.80;38.10;;;;;;5012683;28;20050;-82
2023/05/24 10:59:38;;;;;;;5.13;3.42;;;40.70;37.40;;;;;;5025547;28;20042;-84
2023/05/24 11:02:12;;;;;;;4.07;2.53;;;39.30;38.20;;;;;;5011772;28;20080;-85
2023/05/24 11:04:43;;;;;;;6.72;2.97;;;37.30;40.00;;;;;;5021214;28;20056;-85
2023/05/24 11:07:14;;;;;;;5.80;3.23;;;35.50;42.50;;;;;;5019030;28;20053;-85
2023/05/24 11:09:51;;;;;;;4.40;3.10;;;33.90;43.60;;;;;;5024603;28;20353;-79
2023/05/24 11:12:20;;;;;;;3.28;3.08;;;32.80;45.90;;;;;;5010851;28;20080;-80
2023/05/24 11:14:51;;;;;;;7.43;3.67;;;31.80;46.20;;;;;;5024053;28;20053;-78
2023/05/24 11:17:21;;;;;;;3.45;3.15;;;30.90;47.80;;;;;;5030741;28;20517;-79
2023/05/24 11:19:52;;;;;;;7.18;3.53;;;30.30;49.60;;;;;;5012464;28;20053;-80
2023/05/24 11:22:21;;;;;;;6.65;3.17;;;29.80;50.60;;;;;;5026984;28;20044;-78
2023/05/24 11:24:53;;;;;;;6.07;3.70;;;29.40;51.60;;;;;;5030673;28;20057;-78
2023/05/24 11:27:21;;;;;;;4.97;3.15;;;29.00;51.60;;;;;;5014007;28;20084;-82
2023/05/24 11:29:49;;;;;;;5.20;3.30;;;28.60;51.90;;;;;;5012856;28;20140;-79
2023/05/24 11:32:19;;;;;;;20.25;3.72;;;28.30;52.80;;;;;;5028456;28;20045;-83
2023/05/24 11:34:47;;;;;;;4.57;3.10;;;28.00;53.80;;;;;;5029129;28;20049;-80
2023/05/24 11:37:18;;;;;;;5.72;3.22;;;27.80;54.30;;;;;;5009053;28;20049;-84
2023/05/24 11:39:51;;;;;;;4.63;3.38;;;27.60;54.70;;;;;;5010774;28;20060;-81
2023/05/24 11:42:19;;;;;;;5.90;2.92;;;27.40;54.90;;;;;;5018954;28;20052;-86
2023/05/24 11:44:50;;;;;;;5.25;3.17;;;27.40;54.20;;;;;;5027643;28;20099;-85
2023/05/24 11:47:21;;;;;;;4.60;3.70;;;27.40;54.60;;;;;;4998145;28;20544;-85
2023/05/24 11:49:51;;;;;;;3.88;3.10;;;27.40;55.10;;;;;;5020275;28;20096;-81
2023/05/24 11:52:18;;;;;;;3.90;2.80;;;27.20;54.50;;;;;;5006137;28;20510;-87
2023/05/24 11:54:46;;;;;;;4.50;3.03;;;27.10;53.70;;;;;;5010129;28;20429;-90
2023/05/24 11:57:14;;;;;;;3.80;3.40;;;26.90;54.90;;;;;;5022686;28;20049;-82
2023/05/24 11:59:44;;;;;;;5.85;3.78;;;26.90;55.50;;;;;;5027458;28;20442;-82
2023/05/24 12:02:13;;;;;;;4.60;3.05;;;26.70;54.90;;;;;;5010654;28;20091;-81
2023/05/24 12:04:41;;;;;;;3.65;3.35;;;26.60;56.50;;;;;;5018722;28;20054;-82
2023/05/24 12:07:12;;;;;;;9.70;4.45;;;26.50;55.60;;;;;;5007157;28;20042;-83
2023/05/24 12:09:39;;;;;;;5.68;3.72;;;26.70;57.00;;;;;;5028536;28;20050;-83
2023/05/24 12:12:08;;;;;;;8.98;3.65;;;28.20;56.30;;;;;;5021717;28;20041;-82
2023/05/24 12:14:36;;;;;;;3.20;2.90;;;30.40;51.90;;;;;;5025600;28;20108;-83
2023/05/24 12:17:04;;;;;;;7.88;3.33;;;31.00;48.70;;;;;;5024748;28;20054;-81
2023/05/24 12:19:34;;;;;;;4.03;3.00;;;30.40;48.80;;;;;;5014385;28;20084;-84
2023/05/24 12:22:05;;;;;;;5.18;3.50;;;29.50;49.00;;;;;;5023671;28;20128;-83
2023/05/24 12:24:33;;;;;;;4.75;3.05;;;28.70;51.10;;;;;;5009043;28;20046;-83
2023/05/24 12:27:05;;;;;;;3.70;3.30;;;27.90;49.80;;;;;;5027939;28;20060;-82
2023/05/24 12:29:35;;;;;;;4.00;3.42;;;27.30;51.30;;;;;;4994503;28;20471;-83
2023/05/24 12:32:03;;;;;;;4.25;2.90;;;26.90;52.70;;;;;;5001565;28;20046;-83
2023/05/24 12:34:32;;;;;;;3.45;3.15;;;26.60;53.60;;;;;;5000448;28;20045;-82
2023/05/24 12:37:01;;;;;;;7.10;3.60;;;26.50;54.20;;;;;;5003971;28;20041;-83
2023/05/24 12:39:32;;;;;;;5.13;3.35;;;26.40;54.40;;;;;;4995083;28;20096;-82
2023/05/24 12:42:01;;;;;;;7.25;3.30;;;26.30;55.20;;;;;;5011327;28;20049;-84
2023/05/24 12:44:30;;;;;;;4.70;3.17;;;26.10;55.70;;;;;;5011430;28;20505;-82
2023/05/24 12:47:01;;;;;;;14.25;3.63;;;26.00;56.60;;;;;;4995711;28;20038;-83
2023/05/24 12:49:30;;;;;;;8.47;4.47;;;25.90;57.20;;;;;;5011201;28;20201;-83
2023/05/24 12:52:00;;;;;;;5.53;4.32;;;25.80;57.60;;;;;;5013860;28;20068;-83